sensor_id;sensor_type;location;lat;lon;timestamp;P1;durP1;ratioP1;P2;durP2;ratioP2
63112;SDS011;49206;48.020;21.378;2023-07-24T00:00:34;8.48;;;5.82;;
63112;SDS011;49206;48.020;21.378;2023-07-24T00:01:37;8.85;;;6.65;;
63112;SDS011;49206;48.020;21.378;2023-07-24T00:02:40;12.02;;;6.65;;
63112;SDS011;49206;48.020;21.378;2023-07-24T00:03:43;8.45;;;6.22;;
63112;SDS011;49206;48.020;21.378;2023-07-24T00:04:45;8.45;;;6.07;;
63112;SDS011;49206;48.020;21.378;2023-07-24T00:05:48;11.38;;;6.28;;
63112;SDS011;49206;48.020;21.378;2023-07-24T00:06:50;9.80;;;6.03;;
63112;SDS011;49206;48.020;21.378;2023-07-24T00:07:53;10.75;;;6.13;;
63112;SDS011;49206;48.020;21.378;2023-07-24T00:08:56;9.52;;;6.30;;
63112;SDS011;49206;48.020;21.378;2023-07-24T00:09:58;9.13;;;6.43;;
63112;SDS011;49206;48.020;21.378;2023-07-24T00:11:00;7.47;;;6.00;;
63112;SDS011;49206;48.020;21.378;2023-07-24T00:12:06;9.77;;;6.60;;
63112;SDS011;49206;48.020;21.378;2023-07-24T00:13:09;9.18;;;6.38;;
63112;SDS011;49206;48.020;21.378;2023-07-24T00:14:11;10.77;;;6.70;;
63112;SDS011;49206;48.020;21.378;2023-07-24T00:15:14;11.20;;;6.78;;
63112;SDS011;49206;48.020;21.378;2023-07-24T00:16:17;9.77;;;6.35;;
63112;SDS011;49206;48.020;21.378;2023-07-24T00:17:19;9.40;;;6.50;;
63112;SDS011;49206;48.020;21.378;2023-07-24T00:18:22;8.77;;;5.97;;
63112;SDS011;49206;48.020;21.378;2023-07-24T00:19:24;8.68;;;6.10;;
63112;SDS011;49206;48.020;21.378;2023-07-24T00:20:26;9.90;;;7.38;;
63112;SDS011;49206;48.020;21.378;2023-07-24T00:21:29;9.60;;;6.15;;
63112;SDS011;49206;48.020;21.378;2023-07-24T00:22:32;8.90;;;6.85;;
63112;SDS011;49206;48.020;21.378;2023-07-24T00:23:34;11.38;;;6.00;;
63112;SDS011;49206;48.020;21.378;2023-07-24T00:24:37;7.78;;;6.15;;
63112;SDS011;49206;48.020;21.378;2023-07-24T00:25:39;10.02;;;6.10;;
63112;SDS011;49206;48.020;21.378;2023-07-24T00:26:42;8.45;;;6.05;;
63112;SDS011;49206;48.020;21.378;2023-07-24T00:27:44;11.07;;;6.57;;
63112;SDS011;49206;48.020;21.378;2023-07-24T00:28:47;10.10;;;7.03;;
63112;SDS011;49206;48.020;21.378;2023-07-24T00:29:49;9.43;;;6.65;;
63112;SDS011;49206;48.020;21.378;2023-07-24T00:30:52;13.18;;;6.40;;
63112;SDS011;49206;48.020;21.378;2023-07-24T00:31:54;13.13;;;7.18;;
63112;SDS011;49206;48.020;21.378;2023-07-24T00:32:57;12.38;;;6.93;;
63112;SDS011;49206;48.020;21.378;2023-07-24T00:33:59;11.30;;;6.07;;
63112;SDS011;49206;48.020;21.378;2023-07-24T00:35:02;8.43;;;6.10;;
63112;SDS011;49206;48.020;21.378;2023-07-24T00:36:05;11.40;;;6.75;;
63112;SDS011;49206;48.020;21.378;2023-07-24T00:37:07;8.32;;;5.80;;
63112;SDS011;49206;48.020;21.378;2023-07-24T00:38:10;9.02;;;6.38;;
63112;SDS011;49206;48.020;21.378;2023-07-24T00:39:16;7.15;;;5.82;;
63112;SDS011;49206;48.020;21.378;2023-07-24T00:40:18;7.93;;;6.00;;
63112;SDS011;49206;48.020;21.378;2023-07-24T00:41:21;9.60;;;6.07;;
63112;SDS011;49206;48.020;21.378;2023-07-24T00:42:23;11.80;;;6.30;;
63112;SDS011;49206;48.020;21.378;2023-07-24T00:43:25;8.30;;;6.47;;
63112;SDS011;49206;48.020;21.378;2023-07-24T00:44:29;9.13;;;6.75;;
63112;SDS011;49206;48.020;21.378;2023-07-24T00:45:31;11.60;;;6.70;;
63112;SDS011;49206;48.020;21.378;2023-07-24T00:46:34;7.28;;;6.53;;
63112;SDS011;49206;48.020;21.378;2023-07-24T00:47:37;8.70;;;6.35;;
63112;SDS011;49206;48.020;21.378;2023-07-24T00:48:40;13.38;;;6.28;;
63112;SDS011;49206;48.020;21.378;2023-07-24T00:49:42;11.82;;;6.22;;
63112;SDS011;49206;48.020;21.378;2023-07-24T00:50:45;8.85;;;6.25;;
63112;SDS011;49206;48.020;21.378;2023-07-24T00:51:48;8.13;;;6.55;;
63112;SDS011;49206;48.020;21.378;2023-07-24T00:52:50;9.05;;;5.90;;
63112;SDS011;49206;48.020;21.378;2023-07-24T00:53:56;8.50;;;6.13;;
63112;SDS011;49206;48.020;21.378;2023-07-24T00:54:59;9.25;;;6.07;;
63112;SDS011;49206;48.020;21.378;2023-07-24T00:56:02;10.05;;;6.75;;
63112;SDS011;49206;48.020;21.378;2023-07-24T00:57:05;10.50;;;6.38;;
63112;SDS011;49206;48.020;21.378;2023-07-24T00:58:07;8.32;;;5.72;;
63112;SDS011;49206;48.020;21.378;2023-07-24T00:59:14;9.48;;;6.28;;
63112;SDS011;49206;48.020;21.378;2023-07-24T01:00:16;9.55;;;5.97;;
63112;SDS011;49206;48.020;21.378;2023-07-24T01:01:21;9.85;;;6.15;;
63112;SDS011;49206;48.020;21.378;2023-07-24T01:02:23;9.93;;;6.00;;
63112;SDS011;49206;48.020;21.378;2023-07-24T01:03:28;8.60;;;6.53;;
63112;SDS011;49206;48.020;21.378;2023-07-24T01:04:34;10.55;;;6.03;;
63112;SDS011;49206;48.020;21.378;2023-07-24T01:05:36;7.68;;;6.47;;
63112;SDS011;49206;48.020;21.378;2023-07-24T01:06:40;6.35;;;5.35;;
63112;SDS011;49206;48.020;21.378;2023-07-24T01:07:42;8.05;;;6.35;;
63112;SDS011;49206;48.020;21.378;2023-07-24T01:08:44;11.02;;;6.80;;
63112;SDS011;49206;48.020;21.378;2023-07-24T01:09:47;9.75;;;5.95;;
63112;SDS011;49206;48.020;21.378;2023-07-24T01:10:49;9.75;;;6.18;;
63112;SDS011;49206;48.020;21.378;2023-07-24T01:11:55;7.63;;;6.13;;
63112;SDS011;49206;48.020;21.378;2023-07-24T01:13:08;8.15;;;6.20;;
63112;SDS011;49206;48.020;21.378;2023-07-24T01:14:23;9.57;;;6.70;;
63112;SDS011;49206;48.020;21.378;2023-07-24T01:15:32;9.00;;;6.80;;
63112;SDS011;49206;48.020;21.378;2023-07-24T01:16:40;6.95;;;5.88;;
63112;SDS011;49206;48.020;21.378;2023-07-24T01:17:48;11.85;;;5.90;;
63112;SDS011;49206;48.020;21.378;2023-07-24T01:18:54;9.48;;;6.63;;
63112;SDS011;49206;48.020;21.378;2023-07-24T01:19:58;9.40;;;5.90;;
63112;SDS011;49206;48.020;21.378;2023-07-24T01:21:01;10.70;;;6.43;;
63112;SDS011;49206;48.020;21.378;2023-07-24T01:27:01;9.13;;;6.47;;
63112;SDS011;49206;48.020;21.378;2023-07-24T01:28:07;9.18;;;5.75;;
63112;SDS011;49206;48.020;21.378;2023-07-24T01:29:10;8.15;;;5.95;;
63112;SDS011;49206;48.020;21.378;2023-07-24T01:30:16;8.75;;;6.10;;
63112;SDS011;49206;48.020;21.378;2023-07-24T01:31:21;10.15;;;6.32;;
63112;SDS011;49206;48.020;21.378;2023-07-24T01:32:23;7.75;;;5.80;;
63112;SDS011;49206;48.020;21.378;2023-07-24T01:33:26;11.98;;;6.40;;
63112;SDS011;49206;48.020;21.378;2023-07-24T01:34:29;7.25;;;6.20;;
63112;SDS011;49206;48.020;21.378;2023-07-24T01:35:31;9.43;;;6.63;;
63112;SDS011;49206;48.020;21.378;2023-07-24T01:36:34;11.80;;;6.15;;
63112;SDS011;49206;48.020;21.378;2023-07-24T01:37:36;8.80;;;6.60;;
63112;SDS011;49206;48.020;21.378;2023-07-24T01:38:41;10.02;;;5.90;;
63112;SDS011;49206;48.020;21.378;2023-07-24T01:39:44;8.43;;;6.13;;
63112;SDS011;49206;48.020;21.378;2023-07-24T01:40:47;10.25;;;5.97;;
63112;SDS011;49206;48.020;21.378;2023-07-24T01:41:49;8.60;;;6.35;;
63112;SDS011;49206;48.020;21.378;2023-07-24T01:42:52;10.65;;;6.55;;
63112;SDS011;49206;48.020;21.378;2023-07-24T01:43:54;9.00;;;6.30;;
63112;SDS011;49206;48.020;21.378;2023-07-24T01:44:57;8.43;;;6.07;;
63112;SDS011;49206;48.020;21.378;2023-07-24T01:45:59;10.55;;;6.20;;
63112;SDS011;49206;48.020;21.378;2023-07-24T01:47:02;10.93;;;6.50;;
63112;SDS011;49206;48.020;21.378;2023-07-24T01:48:04;8.73;;;5.88;;
63112;SDS011;49206;48.020;21.378;2023-07-24T01:49:07;9.25;;;6.50;;
63112;SDS011;49206;48.020;21.378;2023-07-24T01:50:10;8.65;;;5.95;;
63112;SDS011;49206;48.020;21.378;2023-07-24T01:51:13;10.00;;;5.95;;
63112;SDS011;49206;48.020;21.378;2023-07-24T01:52:16;9.05;;;6.10;;
63112;SDS011;49206;48.020;21.378;2023-07-24T01:53:18;10.10;;;6.07;;
63112;SDS011;49206;48.020;21.378;2023-07-24T01:54:20;9.52;;;6.28;;
63112;SDS011;49206;48.020;21.378;2023-07-24T01:55:23;9.23;;;5.57;;
63112;SDS011;49206;48.020;21.378;2023-07-24T01:56:26;7.93;;;5.72;;
63112;SDS011;49206;48.020;21.378;2023-07-24T01:57:29;5.82;;;4.90;;
63112;SDS011;49206;48.020;21.378;2023-07-24T01:58:31;7.93;;;5.05;;
63112;SDS011;49206;48.020;21.378;2023-07-24T01:59:33;6.38;;;4.85;;
63112;SDS011;49206;48.020;21.378;2023-07-24T02:00:36;16.67;;;6.05;;
63112;SDS011;49206;48.020;21.378;2023-07-24T02:01:38;8.18;;;5.75;;
63112;SDS011;49206;48.020;21.378;2023-07-24T02:02:41;7.32;;;5.63;;
63112;SDS011;49206;48.020;21.378;2023-07-24T02:03:43;7.13;;;5.93;;
63112;SDS011;49206;48.020;21.378;2023-07-24T02:04:46;9.23;;;5.60;;
63112;SDS011;49206;48.020;21.378;2023-07-24T02:05:49;8.77;;;6.00;;
63112;SDS011;49206;48.020;21.378;2023-07-24T02:06:52;9.88;;;5.45;;
63112;SDS011;49206;48.020;21.378;2023-07-24T02:07:54;7.55;;;5.30;;
63112;SDS011;49206;48.020;21.378;2023-07-24T02:08:57;12.95;;;5.75;;
63112;SDS011;49206;48.020;21.378;2023-07-24T02:10:00;12.02;;;6.45;;
63112;SDS011;49206;48.020;21.378;2023-07-24T02:11:02;11.05;;;6.43;;
63112;SDS011;49206;48.020;21.378;2023-07-24T02:12:05;11.32;;;5.82;;
63112;SDS011;49206;48.020;21.378;2023-07-24T02:13:08;9.75;;;5.85;;
63112;SDS011;49206;48.020;21.378;2023-07-24T02:14:12;10.73;;;6.07;;
63112;SDS011;49206;48.020;21.378;2023-07-24T02:16:17;9.32;;;6.03;;
63112;SDS011;49206;48.020;21.378;2023-07-24T02:17:20;10.40;;;5.55;;
63112;SDS011;49206;48.020;21.378;2023-07-24T02:18:24;9.52;;;5.75;;
63112;SDS011;49206;48.020;21.378;2023-07-24T02:19:26;9.63;;;6.60;;
63112;SDS011;49206;48.020;21.378;2023-07-24T02:20:28;8.70;;;6.30;;
63112;SDS011;49206;48.020;21.378;2023-07-24T02:21:31;9.85;;;6.28;;
63112;SDS011;49206;48.020;21.378;2023-07-24T02:22:33;9.50;;;6.93;;
63112;SDS011;49206;48.020;21.378;2023-07-24T02:23:38;10.10;;;5.90;;
63112;SDS011;49206;48.020;21.378;2023-07-24T02:24:41;8.38;;;6.22;;
63112;SDS011;49206;48.020;21.378;2023-07-24T02:25:44;8.27;;;6.22;;
63112;SDS011;49206;48.020;21.378;2023-07-24T02:26:46;9.18;;;6.20;;
63112;SDS011;49206;48.020;21.378;2023-07-24T02:27:49;10.63;;;6.10;;
63112;SDS011;49206;48.020;21.378;2023-07-24T02:28:51;7.93;;;5.97;;
63112;SDS011;49206;48.020;21.378;2023-07-24T02:29:55;8.38;;;6.13;;
63112;SDS011;49206;48.020;21.378;2023-07-24T02:30:58;13.52;;;6.68;;
63112;SDS011;49206;48.020;21.378;2023-07-24T02:32:02;9.98;;;6.63;;
63112;SDS011;49206;48.020;21.378;2023-07-24T02:33:05;9.85;;;6.18;;
63112;SDS011;49206;48.020;21.378;2023-07-24T02:34:08;8.60;;;6.28;;
63112;SDS011;49206;48.020;21.378;2023-07-24T02:35:11;8.82;;;6.03;;
63112;SDS011;49206;48.020;21.378;2023-07-24T02:36:14;9.07;;;6.07;;
63112;SDS011;49206;48.020;21.378;2023-07-24T02:37:17;9.18;;;6.55;;
63112;SDS011;49206;48.020;21.378;2023-07-24T02:38:19;11.60;;;6.05;;
63112;SDS011;49206;48.020;21.378;2023-07-24T02:39:21;10.55;;;5.80;;
63112;SDS011;49206;48.020;21.378;2023-07-24T02:40:24;8.98;;;6.97;;
63112;SDS011;49206;48.020;21.378;2023-07-24T02:41:27;9.52;;;6.78;;
63112;SDS011;49206;48.020;21.378;2023-07-24T02:43:33;9.15;;;6.00;;
63112;SDS011;49206;48.020;21.378;2023-07-24T02:44:36;9.88;;;6.43;;
63112;SDS011;49206;48.020;21.378;2023-07-24T02:45:38;9.65;;;7.38;;
63112;SDS011;49206;48.020;21.378;2023-07-24T02:46:41;10.15;;;6.28;;
63112;SDS011;49206;48.020;21.378;2023-07-24T02:47:44;11.65;;;7.35;;
63112;SDS011;49206;48.020;21.378;2023-07-24T02:48:46;10.32;;;6.30;;
63112;SDS011;49206;48.020;21.378;2023-07-24T02:49:48;11.65;;;7.78;;
63112;SDS011;49206;48.020;21.378;2023-07-24T02:50:51;10.57;;;6.93;;
63112;SDS011;49206;48.020;21.378;2023-07-24T02:51:53;11.45;;;7.18;;
63112;SDS011;49206;48.020;21.378;2023-07-24T02:52:56;10.52;;;7.00;;
63112;SDS011;49206;48.020;21.378;2023-07-24T02:53:58;9.63;;;6.57;;
63112;SDS011;49206;48.020;21.378;2023-07-24T02:55:01;9.20;;;7.10;;
63112;SDS011;49206;48.020;21.378;2023-07-24T02:56:03;9.77;;;6.75;;
63112;SDS011;49206;48.020;21.378;2023-07-24T02:57:06;9.40;;;7.07;;
63112;SDS011;49206;48.020;21.378;2023-07-24T02:58:08;11.20;;;7.47;;
63112;SDS011;49206;48.020;21.378;2023-07-24T02:59:11;9.98;;;6.93;;
63112;SDS011;49206;48.020;21.378;2023-07-24T03:00:13;11.40;;;7.30;;
63112;SDS011;49206;48.020;21.378;2023-07-24T03:01:16;12.50;;;7.55;;
63112;SDS011;49206;48.020;21.378;2023-07-24T03:02:19;11.85;;;7.50;;
63112;SDS011;49206;48.020;21.378;2023-07-24T03:03:21;10.32;;;7.25;;
63112;SDS011;49206;48.020;21.378;2023-07-24T03:04:24;10.63;;;7.43;;
63112;SDS011;49206;48.020;21.378;2023-07-24T03:05:26;11.65;;;7.10;;
63112;SDS011;49206;48.020;21.378;2023-07-24T03:06:28;13.68;;;7.60;;
63112;SDS011;49206;48.020;21.378;2023-07-24T03:07:32;11.70;;;7.25;;
63112;SDS011;49206;48.020;21.378;2023-07-24T03:08:35;9.70;;;6.95;;
63112;SDS011;49206;48.020;21.378;2023-07-24T03:09:37;11.38;;;6.95;;
63112;SDS011;49206;48.020;21.378;2023-07-24T03:10:41;11.65;;;7.40;;
63112;SDS011;49206;48.020;21.378;2023-07-24T03:11:43;11.40;;;7.80;;
63112;SDS011;49206;48.020;21.378;2023-07-24T03:12:46;10.00;;;7.85;;
63112;SDS011;49206;48.020;21.378;2023-07-24T03:13:48;12.45;;;8.18;;
63112;SDS011;49206;48.020;21.378;2023-07-24T03:14:50;10.65;;;7.47;;
63112;SDS011;49206;48.020;21.378;2023-07-24T03:15:56;10.77;;;7.15;;
63112;SDS011;49206;48.020;21.378;2023-07-24T03:16:59;10.35;;;7.60;;
63112;SDS011;49206;48.020;21.378;2023-07-24T03:18:04;10.27;;;7.68;;
63112;SDS011;49206;48.020;21.378;2023-07-24T03:19:06;10.55;;;8.70;;
63112;SDS011;49206;48.020;21.378;2023-07-24T03:20:09;10.48;;;8.35;;
63112;SDS011;49206;48.020;21.378;2023-07-24T03:21:16;13.93;;;8.88;;
63112;SDS011;49206;48.020;21.378;2023-07-24T03:22:18;12.73;;;8.00;;
63112;SDS011;49206;48.020;21.378;2023-07-24T03:23:21;12.35;;;9.10;;
63112;SDS011;49206;48.020;21.378;2023-07-24T03:24:23;13.27;;;8.43;;
63112;SDS011;49206;48.020;21.378;2023-07-24T03:25:26;10.90;;;8.20;;
63112;SDS011;49206;48.020;21.378;2023-07-24T03:26:28;11.73;;;8.82;;
63112;SDS011;49206;48.020;21.378;2023-07-24T03:27:31;10.48;;;7.63;;
63112;SDS011;49206;48.020;21.378;2023-07-24T03:28:34;12.98;;;8.40;;
63112;SDS011;49206;48.020;21.378;2023-07-24T03:29:36;11.55;;;8.55;;
63112;SDS011;49206;48.020;21.378;2023-07-24T03:30:39;12.75;;;7.60;;
63112;SDS011;49206;48.020;21.378;2023-07-24T03:31:41;11.52;;;9.02;;
63112;SDS011;49206;48.020;21.378;2023-07-24T03:32:44;10.80;;;7.97;;
63112;SDS011;49206;48.020;21.378;2023-07-24T03:33:47;11.88;;;8.50;;
63112;SDS011;49206;48.020;21.378;2023-07-24T03:34:49;11.20;;;8.57;;
63112;SDS011;49206;48.020;21.378;2023-07-24T03:35:52;14.65;;;8.65;;
63112;SDS011;49206;48.020;21.378;2023-07-24T03:36:54;13.52;;;8.32;;
63112;SDS011;49206;48.020;21.378;2023-07-24T03:37:56;13.90;;;8.35;;
63112;SDS011;49206;48.020;21.378;2023-07-24T03:39:00;12.15;;;8.20;;
63112;SDS011;49206;48.020;21.378;2023-07-24T03:40:02;11.25;;;8.32;;
63112;SDS011;49206;48.020;21.378;2023-07-24T03:41:05;11.75;;;8.50;;
63112;SDS011;49206;48.020;21.378;2023-07-24T03:42:09;11.50;;;8.73;;
63112;SDS011;49206;48.020;21.378;2023-07-24T03:43:14;17.20;;;9.65;;
63112;SDS011;49206;48.020;21.378;2023-07-24T03:44:17;11.30;;;8.13;;
63112;SDS011;49206;48.020;21.378;2023-07-24T03:45:20;12.02;;;8.25;;
63112;SDS011;49206;48.020;21.378;2023-07-24T03:46:22;10.35;;;8.07;;
63112;SDS011;49206;48.020;21.378;2023-07-24T03:47:25;11.48;;;8.13;;
63112;SDS011;49206;48.020;21.378;2023-07-24T03:48:27;12.48;;;8.68;;
63112;SDS011;49206;48.020;21.378;2023-07-24T03:49:30;14.55;;;8.20;;
63112;SDS011;49206;48.020;21.378;2023-07-24T03:50:32;12.98;;;8.43;;
63112;SDS011;49206;48.020;21.378;2023-07-24T03:51:35;10.18;;;8.15;;
63112;SDS011;49206;48.020;21.378;2023-07-24T03:52:37;11.73;;;8.20;;
63112;SDS011;49206;48.020;21.378;2023-07-24T03:53:40;10.98;;;8.00;;
63112;SDS011;49206;48.020;21.378;2023-07-24T03:54:42;12.30;;;9.05;;
63112;SDS011;49206;48.020;21.378;2023-07-24T03:55:44;12.80;;;8.25;;
63112;SDS011;49206;48.020;21.378;2023-07-24T03:56:47;10.65;;;7.80;;
63112;SDS011;49206;48.020;21.378;2023-07-24T03:57:49;11.25;;;8.10;;
63112;SDS011;49206;48.020;21.378;2023-07-24T03:58:52;11.68;;;8.00;;
63112;SDS011;49206;48.020;21.378;2023-07-24T03:59:54;9.82;;;7.60;;
63112;SDS011;49206;48.020;21.378;2023-07-24T04:00:57;12.48;;;8.07;;
63112;SDS011;49206;48.020;21.378;2023-07-24T04:01:59;12.38;;;8.10;;
63112;SDS011;49206;48.020;21.378;2023-07-24T04:03:02;9.50;;;7.47;;
63112;SDS011;49206;48.020;21.378;2023-07-24T04:04:04;11.27;;;8.07;;
63112;SDS011;49206;48.020;21.378;2023-07-24T04:05:07;10.63;;;7.88;;
63112;SDS011;49206;48.020;21.378;2023-07-24T04:06:09;10.45;;;7.93;;
63112;SDS011;49206;48.020;21.378;2023-07-24T04:07:12;12.82;;;8.10;;
63112;SDS011;49206;48.020;21.378;2023-07-24T04:08:14;12.75;;;8.15;;
63112;SDS011;49206;48.020;21.378;2023-07-24T04:09:17;11.18;;;8.15;;
63112;SDS011;49206;48.020;21.378;2023-07-24T04:10:19;12.70;;;8.00;;
63112;SDS011;49206;48.020;21.378;2023-07-24T04:11:21;11.23;;;7.95;;
63112;SDS011;49206;48.020;21.378;2023-07-24T04:12:24;13.65;;;7.80;;
63112;SDS011;49206;48.020;21.378;2023-07-24T04:13:26;11.73;;;8.20;;
63112;SDS011;49206;48.020;21.378;2023-07-24T04:14:28;11.88;;;8.13;;
63112;SDS011;49206;48.020;21.378;2023-07-24T04:15:31;10.60;;;8.15;;
63112;SDS011;49206;48.020;21.378;2023-07-24T04:16:34;11.73;;;8.77;;
63112;SDS011;49206;48.020;21.378;2023-07-24T04:17:36;12.63;;;7.90;;
63112;SDS011;49206;48.020;21.378;2023-07-24T04:18:40;11.00;;;7.90;;
63112;SDS011;49206;48.020;21.378;2023-07-24T04:19:43;11.35;;;8.68;;
63112;SDS011;49206;48.020;21.378;2023-07-24T04:20:45;11.63;;;8.43;;
63112;SDS011;49206;48.020;21.378;2023-07-24T04:21:47;13.23;;;8.85;;
63112;SDS011;49206;48.020;21.378;2023-07-24T04:22:50;11.98;;;8.50;;
63112;SDS011;49206;48.020;21.378;2023-07-24T04:23:52;11.82;;;8.20;;
63112;SDS011;49206;48.020;21.378;2023-07-24T04:24:55;14.38;;;8.63;;
63112;SDS011;49206;48.020;21.378;2023-07-24T04:25:57;13.63;;;9.02;;
63112;SDS011;49206;48.020;21.378;2023-07-24T04:27:00;10.63;;;8.48;;
63112;SDS011;49206;48.020;21.378;2023-07-24T04:28:02;11.32;;;7.78;;
63112;SDS011;49206;48.020;21.378;2023-07-24T04:29:04;11.43;;;7.90;;
63112;SDS011;49206;48.020;21.378;2023-07-24T04:30:07;12.43;;;8.07;;
63112;SDS011;49206;48.020;21.378;2023-07-24T04:31:10;12.75;;;8.52;;
63112;SDS011;49206;48.020;21.378;2023-07-24T04:32:12;12.27;;;8.32;;
63112;SDS011;49206;48.020;21.378;2023-07-24T04:33:15;12.00;;;8.27;;
63112;SDS011;49206;48.020;21.378;2023-07-24T04:34:17;10.90;;;7.90;;
63112;SDS011;49206;48.020;21.378;2023-07-24T04:35:20;9.80;;;7.65;;
63112;SDS011;49206;48.020;21.378;2023-07-24T04:36:22;10.32;;;8.18;;
63112;SDS011;49206;48.020;21.378;2023-07-24T04:37:24;10.27;;;8.10;;
63112;SDS011;49206;48.020;21.378;2023-07-24T04:38:27;10.80;;;8.25;;
63112;SDS011;49206;48.020;21.378;2023-07-24T04:39:29;11.05;;;7.88;;
63112;SDS011;49206;48.020;21.378;2023-07-24T04:40:32;11.63;;;8.50;;
63112;SDS011;49206;48.020;21.378;2023-07-24T04:41:35;10.95;;;7.43;;
63112;SDS011;49206;48.020;21.378;2023-07-24T04:42:37;11.63;;;9.45;;
63112;SDS011;49206;48.020;21.378;2023-07-24T04:43:39;14.95;;;8.15;;
63112;SDS011;49206;48.020;21.378;2023-07-24T04:44:42;12.05;;;8.88;;
63112;SDS011;49206;48.020;21.378;2023-07-24T04:45:44;11.05;;;7.55;;
63112;SDS011;49206;48.020;21.378;2023-07-24T04:46:47;10.57;;;7.82;;
63112;SDS011;49206;48.020;21.378;2023-07-24T04:47:49;12.32;;;8.63;;
63112;SDS011;49206;48.020;21.378;2023-07-24T04:48:52;10.13;;;7.70;;
63112;SDS011;49206;48.020;21.378;2023-07-24T04:49:54;11.32;;;8.38;;
63112;SDS011;49206;48.020;21.378;2023-07-24T04:50:57;11.02;;;7.80;;
63112;SDS011;49206;48.020;21.378;2023-07-24T04:51:59;10.88;;;7.90;;
63112;SDS011;49206;48.020;21.378;2023-07-24T04:53:02;10.77;;;7.78;;
63112;SDS011;49206;48.020;21.378;2023-07-24T04:54:04;13.75;;;8.35;;
63112;SDS011;49206;48.020;21.378;2023-07-24T04:55:06;12.27;;;8.25;;
63112;SDS011;49206;48.020;21.378;2023-07-24T04:56:09;13.65;;;8.38;;
63112;SDS011;49206;48.020;21.378;2023-07-24T04:57:12;9.43;;;7.20;;
63112;SDS011;49206;48.020;21.378;2023-07-24T04:58:14;10.63;;;8.05;;
63112;SDS011;49206;48.020;21.378;2023-07-24T04:59:17;11.73;;;8.20;;
63112;SDS011;49206;48.020;21.378;2023-07-24T05:00:19;11.10;;;7.20;;
63112;SDS011;49206;48.020;21.378;2023-07-24T05:01:22;8.80;;;7.32;;
63112;SDS011;49206;48.020;21.378;2023-07-24T05:02:24;10.25;;;8.02;;
63112;SDS011;49206;48.020;21.378;2023-07-24T05:03:27;9.63;;;7.95;;
63112;SDS011;49206;48.020;21.378;2023-07-24T05:04:29;10.05;;;7.97;;
63112;SDS011;49206;48.020;21.378;2023-07-24T05:05:32;11.85;;;7.90;;
63112;SDS011;49206;48.020;21.378;2023-07-24T05:06:34;12.60;;;7.95;;
63112;SDS011;49206;48.020;21.378;2023-07-24T05:07:39;10.43;;;8.07;;
63112;SDS011;49206;48.020;21.378;2023-07-24T05:08:41;13.57;;;7.85;;
63112;SDS011;49206;48.020;21.378;2023-07-24T05:09:43;10.25;;;7.53;;
63112;SDS011;49206;48.020;21.378;2023-07-24T05:10:46;10.90;;;7.72;;
63112;SDS011;49206;48.020;21.378;2023-07-24T05:11:48;9.07;;;7.05;;
63112;SDS011;49206;48.020;21.378;2023-07-24T05:12:51;12.00;;;7.95;;
63112;SDS011;49206;48.020;21.378;2023-07-24T05:13:53;12.07;;;7.45;;
63112;SDS011;49206;48.020;21.378;2023-07-24T05:14:55;11.18;;;8.15;;
63112;SDS011;49206;48.020;21.378;2023-07-24T05:15:58;9.98;;;7.30;;
63112;SDS011;49206;48.020;21.378;2023-07-24T05:17:00;10.13;;;7.45;;
63112;SDS011;49206;48.020;21.378;2023-07-24T05:18:02;8.63;;;6.68;;
63112;SDS011;49206;48.020;21.378;2023-07-24T05:19:05;10.02;;;6.82;;
63112;SDS011;49206;48.020;21.378;2023-07-24T05:20:07;10.93;;;8.10;;
63112;SDS011;49206;48.020;21.378;2023-07-24T05:21:11;11.30;;;7.72;;
63112;SDS011;49206;48.020;21.378;2023-07-24T05:22:13;10.82;;;8.23;;
63112;SDS011;49206;48.020;21.378;2023-07-24T05:23:15;9.88;;;7.32;;
63112;SDS011;49206;48.020;21.378;2023-07-24T05:24:18;8.57;;;6.57;;
63112;SDS011;49206;48.020;21.378;2023-07-24T05:25:20;12.10;;;8.05;;
63112;SDS011;49206;48.020;21.378;2023-07-24T05:26:23;9.93;;;7.57;;
63112;SDS011;49206;48.020;21.378;2023-07-24T05:27:25;18.70;;;6.82;;
63112;SDS011;49206;48.020;21.378;2023-07-24T05:28:28;9.95;;;6.72;;
63112;SDS011;49206;48.020;21.378;2023-07-24T05:29:32;9.55;;;7.45;;
63112;SDS011;49206;48.020;21.378;2023-07-24T05:30:35;10.27;;;7.15;;
63112;SDS011;49206;48.020;21.378;2023-07-24T05:31:37;8.18;;;6.93;;
63112;SDS011;49206;48.020;21.378;2023-07-24T05:32:39;9.00;;;6.97;;
63112;SDS011;49206;48.020;21.378;2023-07-24T05:33:42;9.68;;;7.10;;
63112;SDS011;49206;48.020;21.378;2023-07-24T05:34:44;14.30;;;7.13;;
63112;SDS011;49206;48.020;21.378;2023-07-24T05:35:50;8.50;;;6.68;;
63112;SDS011;49206;48.020;21.378;2023-07-24T05:36:53;10.32;;;6.97;;
63112;SDS011;49206;48.020;21.378;2023-07-24T05:37:56;11.73;;;7.35;;
63112;SDS011;49206;48.020;21.378;2023-07-24T05:38:58;9.82;;;6.57;;
63112;SDS011;49206;48.020;21.378;2023-07-24T05:40:00;11.88;;;7.45;;
63112;SDS011;49206;48.020;21.378;2023-07-24T05:41:03;10.15;;;8.23;;
63112;SDS011;49206;48.020;21.378;2023-07-24T05:42:06;12.10;;;8.45;;
63112;SDS011;49206;48.020;21.378;2023-07-24T05:43:08;11.75;;;7.85;;
63112;SDS011;49206;48.020;21.378;2023-07-24T05:44:10;10.73;;;7.63;;
63112;SDS011;49206;48.020;21.378;2023-07-24T05:45:13;9.70;;;6.95;;
63112;SDS011;49206;48.020;21.378;2023-07-24T05:47:19;9.50;;;7.03;;
63112;SDS011;49206;48.020;21.378;2023-07-24T05:48:22;8.75;;;6.85;;
63112;SDS011;49206;48.020;21.378;2023-07-24T05:49:26;10.27;;;7.03;;
63112;SDS011;49206;48.020;21.378;2023-07-24T05:50:28;9.68;;;7.10;;
63112;SDS011;49206;48.020;21.378;2023-07-24T05:51:31;9.80;;;6.93;;
63112;SDS011;49206;48.020;21.378;2023-07-24T05:52:33;16.08;;;7.45;;
63112;SDS011;49206;48.020;21.378;2023-07-24T05:53:36;9.18;;;6.65;;
63112;SDS011;49206;48.020;21.378;2023-07-24T05:54:38;9.70;;;7.25;;
63112;SDS011;49206;48.020;21.378;2023-07-24T05:55:41;11.52;;;7.03;;
63112;SDS011;49206;48.020;21.378;2023-07-24T05:56:44;10.10;;;6.47;;
63112;SDS011;49206;48.020;21.378;2023-07-24T05:57:47;11.88;;;8.10;;
63112;SDS011;49206;48.020;21.378;2023-07-24T05:58:49;9.07;;;6.63;;
63112;SDS011;49206;48.020;21.378;2023-07-24T05:59:52;8.93;;;7.00;;
63112;SDS011;49206;48.020;21.378;2023-07-24T06:00:55;8.68;;;6.70;;
63112;SDS011;49206;48.020;21.378;2023-07-24T06:01:57;9.32;;;7.85;;
63112;SDS011;49206;48.020;21.378;2023-07-24T06:03:00;10.60;;;6.63;;
63112;SDS011;49206;48.020;21.378;2023-07-24T06:04:03;9.40;;;6.80;;
63112;SDS011;49206;48.020;21.378;2023-07-24T06:05:06;12.35;;;6.80;;
63112;SDS011;49206;48.020;21.378;2023-07-24T06:06:09;9.05;;;6.85;;
63112;SDS011;49206;48.020;21.378;2023-07-24T06:07:11;8.90;;;7.63;;
63112;SDS011;49206;48.020;21.378;2023-07-24T06:08:14;10.85;;;7.30;;
63112;SDS011;49206;48.020;21.378;2023-07-24T06:09:16;11.15;;;6.90;;
63112;SDS011;49206;48.020;21.378;2023-07-24T06:10:23;9.85;;;7.20;;
63112;SDS011;49206;48.020;21.378;2023-07-24T06:11:25;10.13;;;6.75;;
63112;SDS011;49206;48.020;21.378;2023-07-24T06:12:29;8.23;;;7.25;;
63112;SDS011;49206;48.020;21.378;2023-07-24T06:13:31;9.98;;;6.72;;
63112;SDS011;49206;48.020;21.378;2023-07-24T06:14:34;9.27;;;7.10;;
63112;SDS011;49206;48.020;21.378;2023-07-24T06:15:36;12.85;;;7.05;;
63112;SDS011;49206;48.020;21.378;2023-07-24T06:16:38;9.27;;;7.18;;
63112;SDS011;49206;48.020;21.378;2023-07-24T06:17:41;11.13;;;7.53;;